sensor_id;sensor_type;location;lat;lon;timestamp;pressure;altitude;pressure_sealevel;temperature;humidity
26807;BME280;14380;49.910;6.792;2023-04-08T00:01:52;99251.66;;;8.96;100.00
26807;BME280;14380;49.910;6.792;2023-04-08T00:04:19;99248.06;;;8.99;100.00
26807;BME280;14380;49.910;6.792;2023-04-08T00:06:46;99240.97;;;9.01;100.00
26807;BME280;14380;49.910;6.792;2023-04-08T00:09:14;99245.22;;;9.03;100.00
26807;BME280;14380;49.910;6.792;2023-04-08T00:11:40;99243.72;;;8.98;100.00
26807;BME280;14380;49.910;6.792;2023-04-08T00:14:07;99242.13;;;8.93;100.00
26807;BME280;14380;49.910;6.792;2023-04-08T00:16:34;99245.78;;;8.89;100.00
26807;BME280;14380;49.910;6.792;2023-04-08T00:19:00;99244.00;;;8.90;100.00
26807;BME280;14380;49.910;6.792;2023-04-08T00:21:27;99253.47;;;8.73;100.00
26807;BME280;14380;49.910;6.792;2023-04-08T00:23:54;99250.94;;;8.70;100.00
26807;BME280;14380;49.910;6.792;2023-04-08T00:26:22;99251.78;;;8.71;100.00
26807;BME280;14380;49.910;6.792;2023-04-08T00:28:50;99259.16;;;8.39;100.00
26807;BME280;14380;49.910;6.792;2023-04-08T00:31:17;99254.69;;;8.41;100.00
26807;BME280;14380;49.910;6.792;2023-04-08T00:33:43;99252.25;;;8.36;100.00
26807;BME280;14380;49.910;6.792;2023-04-08T00:36:10;99248.13;;;8.29;100.00
26807;BME280;14380;49.910;6.792;2023-04-08T00:38:37;99248.50;;;8.42;100.00
26807;BME280;14380;49.910;6.792;2023-04-08T00:41:04;99253.81;;;8.40;100.00
26807;BME280;14380;49.910;6.792;2023-04-08T00:43:32;99251.44;;;8.34;100.00
26807;BME280;14380;49.910;6.792;2023-04-08T00:45:58;99252.88;;;8.41;100.00
26807;BME280;14380;49.910;6.792;2023-04-08T00:48:25;99252.25;;;8.36;100.00
26807;BME280;14380;49.910;6.792;2023-04-08T00:50:52;99250.63;;;8.32;100.00
26807;BME280;14380;49.910;6.792;2023-04-08T00:53:19;99247.88;;;8.35;100.00
26807;BME280;14380;49.910;6.792;2023-04-08T00:55:45;99248.00;;;8.32;100.00
26807;BME280;14380;49.910;6.792;2023-04-08T00:58:13;99256.28;;;8.21;100.00
26807;BME280;14380;49.910;6.792;2023-04-08T01:00:44;99252.41;;;8.55;100.00
26807;BME280;14380;49.910;6.792;2023-04-08T01:03:16;99255.09;;;8.30;100.00
26807;BME280;14380;49.910;6.792;2023-04-08T01:05:53;99257.31;;;8.41;100.00
26807;BME280;14380;49.910;6.792;2023-04-08T01:08:25;99255.41;;;8.44;100.00
26807;BME280;14380;49.910;6.792;2023-04-08T01:10:55;99261.03;;;8.35;100.00
26807;BME280;14380;49.910;6.792;2023-04-08T01:13:25;99264.50;;;8.36;100.00
26807;BME280;14380;49.910;6.792;2023-04-08T01:15:55;99259.22;;;8.37;100.00
26807;BME280;14380;49.910;6.792;2023-04-08T01:18:22;99260.75;;;8.43;100.00
26807;BME280;14380;49.910;6.792;2023-04-08T01:20:50;99261.38;;;8.26;100.00
26807;BME280;14380;49.910;6.792;2023-04-08T01:23:22;99260.50;;;8.25;100.00
26807;BME280;14380;49.910;6.792;2023-04-08T01:25:52;99267.69;;;8.22;100.00
26807;BME280;14380;49.910;6.792;2023-04-08T01:28:21;99267.59;;;8.23;100.00
26807;BME280;14380;49.910;6.792;2023-04-08T01:30:48;99267.69;;;8.22;100.00
26807;BME280;14380;49.910;6.792;2023-04-08T01:33:17;99266.69;;;8.24;100.00
26807;BME280;14380;49.910;6.792;2023-04-08T01:35:45;99275.50;;;8.23;100.00
26807;BME280;14380;49.910;6.792;2023-04-08T01:38:14;99276.16;;;8.30;100.00
26807;BME280;14380;49.910;6.792;2023-04-08T01:40:43;99282.16;;;8.10;100.00
26807;BME280;14380;49.910;6.792;2023-04-08T01:43:13;99274.94;;;8.15;100.00
26807;BME280;14380;49.910;6.792;2023-04-08T01:45:42;99277.56;;;8.15;100.00
26807;BME280;14380;49.910;6.792;2023-04-08T01:48:11;99272.97;;;8.20;100.00
26807;BME280;14380;49.910;6.792;2023-04-08T01:50:39;99268.81;;;8.38;100.00
26807;BME280;14380;49.910;6.792;2023-04-08T01:53:08;99271.03;;;8.25;100.00
26807;BME280;14380;49.910;6.792;2023-04-08T01:55:35;99267.34;;;8.31;100.00
26807;BME280;14380;49.910;6.792;2023-04-08T01:58:04;99268.25;;;8.30;100.00
26807;BME280;14380;49.910;6.792;2023-04-08T02:00:34;99265.50;;;8.33;100.00
26807;BME280;14380;49.910;6.792;2023-04-08T02:03:04;99265.38;;;8.36;100.00
26807;BME280;14380;49.910;6.792;2023-04-08T02:05:32;99267.16;;;8.36;100.00
26807;BME280;14380;49.910;6.792;2023-04-08T02:07:59;99264.28;;;8.42;100.00
26807;BME280;14380;49.910;6.792;2023-04-08T02:10:26;99264.09;;;8.46;100.00
26807;BME280;14380;49.910;6.792;2023-04-08T02:12:52;99256.19;;;8.46;100.00
26807;BME280;14380;49.910;6.792;2023-04-08T02:15:19;99261.44;;;8.48;100.00
26807;BME280;14380;49.910;6.792;2023-04-08T02:17:50;99255.78;;;8.59;100.00
26807;BME280;14380;49.910;6.792;2023-04-08T02:20:18;99263.50;;;8.40;100.00
26807;BME280;14380;49.910;6.792;2023-04-08T02:22:51;99263.41;;;8.41;100.00
26807;BME280;14380;49.910;6.792;2023-04-08T02:25:21;99272.00;;;8.46;100.00
26807;BME280;14380;49.910;6.792;2023-04-08T02:27:51;99275.34;;;8.52;100.00
26807;BME280;14380;49.910;6.792;2023-04-08T02:30:18;99272.97;;;8.44;100.00
26807;BME280;14380;49.910;6.792;2023-04-08T02:32:47;99275.78;;;8.39;100.00
26807;BME280;14380;49.910;6.792;2023-04-08T02:35:17;99280.31;;;8.36;100.00
26807;BME280;14380;49.910;6.792;2023-04-08T02:37:45;99278.41;;;8.15;100.00
26807;BME280;14380;49.910;6.792;2023-04-08T02:40:23;99280.19;;;8.39;100.00
26807;BME280;14380;49.910;6.792;2023-04-08T02:42:50;99279.09;;;8.44;100.00
26807;BME280;14380;49.910;6.792;2023-04-08T02:45:17;99280.66;;;8.26;100.00
26807;BME280;14380;49.910;6.792;2023-04-08T02:47:44;99280.41;;;8.32;100.00
26807;BME280;14380;49.910;6.792;2023-04-08T02:50:12;99282.03;;;8.13;100.00
26807;BME280;14380;49.910;6.792;2023-04-08T02:52:38;99285.28;;;8.19;100.00
26807;BME280;14380;49.910;6.792;2023-04-08T02:55:06;99284.19;;;8.25;100.00
26807;BME280;14380;49.910;6.792;2023-04-08T02:57:34;99280.59;;;8.28;100.00
26807;BME280;14380;49.910;6.792;2023-04-08T03:00:02;99280.41;;;8.32;100.00
26807;BME280;14380;49.910;6.792;2023-04-08T03:02:29;99282.38;;;8.03;100.00
26807;BME280;14380;49.910;6.792;2023-04-08T03:04:56;99280.25;;;7.89;100.00
26807;BME280;14380;49.910;6.792;2023-04-08T03:07:25;99281.25;;;7.85;100.00
26807;BME280;14380;49.910;6.792;2023-04-08T03:09:52;99286.63;;;8.06;100.00
26807;BME280;14380;49.910;6.792;2023-04-08T03:12:19;99285.47;;;8.15;100.00
26807;BME280;14380;49.910;6.792;2023-04-08T03:14:46;99286.97;;;7.97;100.00
26807;BME280;14380;49.910;6.792;2023-04-08T03:17:13;99283.31;;;8.01;100.00
26807;BME280;14380;49.910;6.792;2023-04-08T03:19:40;99285.59;;;7.86;100.00
26807;BME280;14380;49.910;6.792;2023-04-08T03:22:07;99282.97;;;7.86;100.00
26807;BME280;14380;49.910;6.792;2023-04-08T03:24:35;99282.81;;;7.91;100.00
26807;BME280;14380;49.910;6.792;2023-04-08T03:27:02;99281.19;;;7.87;100.00
26807;BME280;14380;49.910;6.792;2023-04-08T03:29:29;99281.66;;;7.98;100.00
26807;BME280;14380;49.910;6.792;2023-04-08T03:31:56;99287.22;;;7.91;100.00
26807;BME280;14380;49.910;6.792;2023-04-08T03:34:22;99294.81;;;7.98;100.00
26807;BME280;14380;49.910;6.792;2023-04-08T03:36:49;99282.91;;;7.88;100.00
26807;BME280;14380;49.910;6.792;2023-04-08T03:39:16;99290.59;;;7.94;100.00
26807;BME280;14380;49.910;6.792;2023-04-08T03:41:45;99287.72;;;8.00;100.00
26807;BME280;14380;49.910;6.792;2023-04-08T03:44:12;99290.66;;;7.93;100.00
26807;BME280;14380;49.910;6.792;2023-04-08T03:46:38;99292.00;;;8.03;100.00
26807;BME280;14380;49.910;6.792;2023-04-08T03:49:05;99293.50;;;8.10;100.00
26807;BME280;14380;49.910;6.792;2023-04-08T03:51:33;99289.63;;;8.21;100.00
26807;BME280;14380;49.910;6.792;2023-04-08T03:53:59;99293.00;;;8.00;100.00
26807;BME280;14380;49.910;6.792;2023-04-08T03:56:26;99285.81;;;8.06;100.00
26807;BME280;14380;49.910;6.792;2023-04-08T03:58:54;99290.41;;;7.99;100.00
26807;BME280;14380;49.910;6.792;2023-04-08T04:01:21;99295.75;;;8.21;100.00
26807;BME280;14380;49.910;6.792;2023-04-08T04:03:48;99293.72;;;8.04;100.00
26807;BME280;14380;49.910;6.792;2023-04-08T04:06:19;99286.56;;;7.84;100.00
26807;BME280;14380;49.910;6.792;2023-04-08T04:08:55;99288.03;;;7.67;100.00
26807;BME280;14380;49.910;6.792;2023-04-08T04:11:25;99288.88;;;7.68;100.00
26807;BME280;14380;49.910;6.792;2023-04-08T04:13:51;99290.41;;;7.73;100.00
26807;BME280;14380;49.910;6.792;2023-04-08T04:16:19;99292.63;;;7.86;100.00
26807;BME280;14380;49.910;6.792;2023-04-08T04:18:46;99285.41;;;7.93;100.00
26807;BME280;14380;49.910;6.792;2023-04-08T04:21:13;99296.72;;;7.69;100.00
26807;BME280;14380;49.910;6.792;2023-04-08T04:23:39;99296.94;;;7.63;100.00
26807;BME280;14380;49.910;6.792;2023-04-08T04:26:09;99301.06;;;7.70;100.00
26807;BME280;14380;49.910;6.792;2023-04-08T04:28:36;99301.91;;;7.71;100.00
26807;BME280;14380;49.910;6.792;2023-04-08T04:31:03;99299.56;;;7.63;100.00
26807;BME280;14380;49.910;6.792;2023-04-08T04:33:31;99305.75;;;7.61;100.00
26807;BME280;14380;49.910;6.792;2023-04-08T04:35:58;99312.94;;;7.55;100.00
26807;BME280;14380;49.910;6.792;2023-04-08T04:38:25;99307.91;;;7.74;100.00
26807;BME280;14380;49.910;6.792;2023-04-08T04:40:52;99307.00;;;7.76;100.00
26807;BME280;14380;49.910;6.792;2023-04-08T04:43:19;99310.81;;;7.67;100.00
26807;BME280;14380;49.910;6.792;2023-04-08T04:45:45;99309.50;;;7.79;100.00
26807;BME280;14380;49.910;6.792;2023-04-08T04:48:12;99312.50;;;7.69;100.00
26807;BME280;14380;49.910;6.792;2023-04-08T04:50:40;99310.50;;;7.76;100.00
26807;BME280;14380;49.910;6.792;2023-04-08T04:53:07;99315.84;;;7.73;100.00
26807;BME280;14380;49.910;6.792;2023-04-08T04:55:34;99315.44;;;7.85;100.00
26807;BME280;14380;49.910;6.792;2023-04-08T04:58:01;99319.13;;;7.80;100.00
26807;BME280;14380;49.910;6.792;2023-04-08T05:00:28;99320.50;;;7.65;100.00
26807;BME280;14380;49.910;6.792;2023-04-08T05:02:54;99322.13;;;7.69;100.00
26807;BME280;14380;49.910;6.792;2023-04-08T05:05:21;99325.38;;;7.76;100.00
26807;BME280;14380;49.910;6.792;2023-04-08T05:07:49;99332.25;;;7.27;100.00
26807;BME280;14380;49.910;6.792;2023-04-08T05:10:16;99329.38;;;7.35;100.00
26807;BME280;14380;49.910;6.792;2023-04-08T05:12:43;99330.19;;;7.37;100.00
26807;BME280;14380;49.910;6.792;2023-04-08T05:15:10;99328.78;;;7.54;100.00
26807;BME280;14380;49.910;6.792;2023-04-08T05:17:37;99334.03;;;7.54;100.00
26807;BME280;14380;49.910;6.792;2023-04-08T05:20:05;99336.75;;;7.51;100.00
26807;BME280;14380;49.910;6.792;2023-04-08T05:22:32;99331.41;;;7.54;100.00
26807;BME280;14380;49.910;6.792;2023-04-08T05:25:00;99330.25;;;7.36;100.00
26807;BME280;14380;49.910;6.792;2023-04-08T05:27:27;99334.72;;;7.59;100.00
26807;BME280;14380;49.910;6.792;2023-04-08T05:29:53;99335.69;;;7.56;100.00
26807;BME280;14380;49.910;6.792;2023-04-08T05:32:20;99339.91;;;7.61;100.00
26807;BME280;14380;49.910;6.792;2023-04-08T05:34:47;99340.63;;;7.66;100.00
26807;BME280;14380;49.910;6.792;2023-04-08T05:37:13;99341.13;;;7.77;100.00
26807;BME280;14380;49.910;6.792;2023-04-08T05:39:40;99347.41;;;7.98;100.00
26807;BME280;14380;49.910;6.792;2023-04-08T05:42:08;99346.56;;;7.72;100.00
26807;BME280;14380;49.910;6.792;2023-04-08T05:44:37;99346.56;;;7.72;100.00
26807;BME280;14380;49.910;6.792;2023-04-08T05:47:05;99347.03;;;7.84;100.00
26807;BME280;14380;49.910;6.792;2023-04-08T05:49:32;99350.53;;;8.10;100.00
26807;BME280;14380;49.910;6.792;2023-04-08T05:51:59;99358.09;;;7.94;100.00
26807;BME280;14380;49.910;6.792;2023-04-08T05:54:26;99354.41;;;8.23;100.00
26807;BME280;14380;49.910;6.792;2023-04-08T05:56:52;99349.03;;;8.02;100.00
26807;BME280;14380;49.910;6.792;2023-04-08T05:59:21;99358.41;;;8.10;100.00
26807;BME280;14380;49.910;6.792;2023-04-08T06:01:47;99354.84;;;8.36;100.00
26807;BME280;14380;49.910;6.792;2023-04-08T06:04:14;99355.41;;;8.21;100.00
26807;BME280;14380;49.910;6.792;2023-04-08T06:06:42;99359.19;;;8.37;100.00
26807;BME280;14380;49.910;6.792;2023-04-08T06:09:08;99360.84;;;8.40;100.00
26807;BME280;14380;49.910;6.792;2023-04-08T06:11:35;99363.00;;;8.54;100.00
26807;BME280;14380;49.910;6.792;2023-04-08T06:14:02;99365.22;;;8.65;100.00
26807;BME280;14380;49.910;6.792;2023-04-08T06:16:30;99367.03;;;8.62;100.00
26807;BME280;14380;49.910;6.792;2023-04-08T06:18:57;99362.03;;;8.56;100.00
26807;BME280;14380;49.910;6.792;2023-04-08T06:21:23;99366.44;;;8.80;100.00
26807;BME280;14380;49.910;6.792;2023-04-08T06:23:50;99368.31;;;9.00;100.00
26807;BME280;14380;49.910;6.792;2023-04-08T06:26:17;99364.47;;;9.07;100.00
26807;BME280;14380;49.910;6.792;2023-04-08T06:28:44;99370.81;;;9.25;100.00
26807;BME280;14380;49.910;6.792;2023-04-08T06:31:10;99373.97;;;9.11;100.00
26807;BME280;14380;49.910;6.792;2023-04-08T06:33:38;99372.34;;;9.31;100.00
26807;BME280;14380;49.910;6.792;2023-04-08T06:36:06;99367.56;;;9.41;100.00
26807;BME280;14380;49.910;6.792;2023-04-08T06:38:33;99369.03;;;9.48;100.00
26807;BME280;14380;49.910;6.792;2023-04-08T06:41:03;99368.56;;;9.59;100.00
26807;BME280;14380;49.910;6.792;2023-04-08T06:43:30;99359.72;;;9.39;100.00
26807;BME280;14380;49.910;6.792;2023-04-08T06:45:57;99359.69;;;9.61;100.00
26807;BME280;14380;49.910;6.792;2023-04-08T06:48:24;99374.03;;;9.54;100.00
26807;BME280;14380;49.910;6.792;2023-04-08T06:50:54;99369.66;;;9.75;100.00
26807;BME280;14380;49.910;6.792;2023-04-08T06:53:21;99379.88;;;9.83;100.00
26807;BME280;14380;49.910;6.792;2023-04-08T06:55:48;99373.69;;;10.05;100.00
26807;BME280;14380;49.910;6.792;2023-04-08T06:58:15;99380.41;;;9.71;100.00
26807;BME280;14380;49.910;6.792;2023-04-08T07:00:42;99377.81;;;9.48;100.00
26807;BME280;14380;49.910;6.792;2023-04-08T07:03:09;99395.25;;;9.51;100.00
26807;BME280;14380;49.910;6.792;2023-04-08T07:05:36;99391.09;;;9.45;100.00
26807;BME280;14380;49.910;6.792;2023-04-08T07:08:05;99398.22;;;9.43;100.00
26807;BME280;14380;49.910;6.792;2023-04-08T07:10:32;99395.94;;;9.56;100.00
26807;BME280;14380;49.910;6.792;2023-04-08T07:13:00;99406.72;;;9.50;100.00
26807;BME280;14380;49.910;6.792;2023-04-08T07:15:27;99401.56;;;9.47;100.00
26807;BME280;14380;49.910;6.792;2023-04-08T07:17:54;99406.72;;;9.28;100.00
26807;BME280;14380;49.910;6.792;2023-04-08T07:20:22;99408.81;;;9.42;100.00
26807;BME280;14380;49.910;6.792;2023-04-08T07:22:48;99415.75;;;9.44;100.00
26807;BME280;14380;49.910;6.792;2023-04-08T07:25:17;99409.53;;;9.67;100.00
26807;BME280;14380;49.910;6.792;2023-04-08T07:27:43;99418.44;;;9.43;100.00
26807;BME280;14380;49.910;6.792;2023-04-08T07:30:11;99422.78;;;9.66;100.00
26807;BME280;14380;49.910;6.792;2023-04-08T07:32:38;99418.25;;;9.70;100.00
26807;BME280;14380;49.910;6.792;2023-04-08T07:35:05;99418.25;;;9.90;100.00
26807;BME280;14380;49.910;6.792;2023-04-08T07:37:32;99411.97;;;9.72;100.00
26807;BME280;14380;49.910;6.792;2023-04-08T07:39:59;99420.56;;;9.77;100.00
26807;BME280;14380;49.910;6.792;2023-04-08T07:42:27;99417.75;;;10.03;100.00
26807;BME280;14380;49.910;6.792;2023-04-08T07:44:54;99418.97;;;9.94;100.00
26807;BME280;14380;49.910;6.792;2023-04-08T07:47:21;99422.94;;;10.04;100.00
26807;BME280;14380;49.910;6.792;2023-04-08T07:49:47;99420.50;;;10.20;100.00
26807;BME280;14380;49.910;6.792;2023-04-08T07:52:14;99422.09;;;10.24;100.00
26807;BME280;14380;49.910;6.792;2023-04-08T07:54:41;99424.94;;;10.20;100.00
26807;BME280;14380;49.910;6.792;2023-04-08T07:57:08;99420.97;;;10.09;100.00
26807;BME280;14380;49.910;6.792;2023-04-08T07:59:36;99424.69;;;10.26;100.00
26807;BME280;14380;49.910;6.792;2023-04-08T08:02:03;99424.22;;;10.37;100.00
26807;BME280;14380;49.910;6.792;2023-04-08T08:04:30;99427.09;;;10.31;100.00
26807;BME280;14380;49.910;6.792;2023-04-08T08:06:56;99433.50;;;10.04;100.00
26807;BME280;14380;49.910;6.792;2023-04-08T08:09:23;99429.13;;;10.46;100.00
26807;BME280;14380;49.910;6.792;2023-04-08T08:11:50;99436.63;;;10.35;100.00
26807;BME280;14380;49.910;6.792;2023-04-08T08:14:17;99436.38;;;10.41;100.00
26807;BME280;14380;49.910;6.792;2023-04-08T08:16:45;99441.09;;;10.33;100.00
26807;BME280;14380;49.910;6.792;2023-04-08T08:19:12;99439.13;;;10.38;100.00
26807;BME280;14380;49.910;6.792;2023-04-08T08:21:39;99438.00;;;10.64;100.00
26807;BME280;14380;49.910;6.792;2023-04-08T08:24:06;99440.31;;;10.31;100.00
26807;BME280;14380;49.910;6.792;2023-04-08T08:26:33;99442.50;;;10.62;100.00
26807;BME280;14380;49.910;6.792;2023-04-08T08:29:01;99441.16;;;10.73;100.00
26807;BME280;14380;49.910;6.792;2023-04-08T08:31:27;99444.47;;;10.78;100.00
26807;BME280;14380;49.910;6.792;2023-04-08T08:33:55;99436.88;;;10.70;100.00
26807;BME280;14380;49.910;6.792;2023-04-08T08:36:22;99453.59;;;10.70;100.00
26807;BME280;14380;49.910;6.792;2023-04-08T08:38:49;99453.19;;;10.59;100.00
26807;BME280;14380;49.910;6.792;2023-04-08T08:41:18;99450.41;;;10.62;100.00
26807;BME280;14380;49.910;6.792;2023-04-08T08:43:45;99455.34;;;10.70;100.00
26807;BME280;14380;49.910;6.792;2023-04-08T08:46:15;99459.34;;;10.60;100.00
26807;BME280;14380;49.910;6.792;2023-04-08T08:48:42;99454.16;;;10.77;100.00
26807;BME280;14380;49.910;6.792;2023-04-08T08:51:12;99455.72;;;11.21;100.00
26807;BME280;14380;49.910;6.792;2023-04-08T08:53:38;99452.56;;;11.13;100.00
26807;BME280;14380;49.910;6.792;2023-04-08T08:56:09;99449.81;;;11.14;100.00
26807;BME280;14380;49.910;6.792;2023-04-08T08:58:37;99452.41;;;11.72;100.00
26807;BME280;14380;49.910;6.792;2023-04-08T09:01:32;99444.63;;;12.05;100.00
26807;BME280;14380;49.910;6.792;2023-04-08T09:04:12;99450.94;;;12.03;92.88
26807;BME280;14380;49.910;6.792;2023-04-08T09:06:42;99452.72;;;12.02;94.81
26807;BME280;14380;49.910;6.792;2023-04-08T09:09:09;99449.03;;;12.58;93.04
26807;BME280;14380;49.910;6.792;2023-04-08T09:11:37;99455.03;;;12.44;91.55
26807;BME280;14380;49.910;6.792;2023-04-08T09:14:05;99452.09;;;12.84;87.91
26807;BME280;14380;49.910;6.792;2023-04-08T09:16:42;99463.41;;;13.03;95.40
26807;BME280;14380;49.910;6.792;2023-04-08T09:19:10;99456.34;;;12.86;92.92
26807;BME280;14380;49.910;6.792;2023-04-08T09:21:38;99458.88;;;13.05;87.99
26807;BME280;14380;49.910;6.792;2023-04-08T09:24:09;99457.59;;;13.13;88.80
26807;BME280;14380;49.910;6.792;2023-04-08T09:26:52;99454.09;;;12.96;85.89
26807;BME280;14380;49.910;6.792;2023-04-08T09:29:23;99453.72;;;13.68;87.02
26807;BME280;14380;49.910;6.792;2023-04-08T09:31:52;99452.72;;;14.01;85.20
26807;BME280;14380;49.910;6.792;2023-04-08T09:34:19;99456.34;;;13.52;82.37
26807;BME280;14380;49.910;6.792;2023-04-08T09:36:47;99455.13;;;13.26;81.29
26807;BME280;14380;49.910;6.792;2023-04-08T09:39:16;99446.69;;;13.51;83.70
26807;BME280;14380;49.910;6.792;2023-04-08T09:41:43;99449.31;;;13.83;85.30
26807;BME280;14380;49.910;6.792;2023-04-08T09:44:11;99436.19;;;14.26;79.99
26807;BME280;14380;49.910;6.792;2023-04-08T09:46:39;99442.00;;;14.48;81.74
26807;BME280;14380;49.910;6.792;2023-04-08T09:49:17;99440.38;;;14.31;79.04
26807;BME280;14380;49.910;6.792;2023-04-08T09:51:53;99455.34;;;14.01;79.00
26807;BME280;14380;49.910;6.792;2023-04-08T09:54:38;99453.00;;;14.41;77.92
26807;BME280;14380;49.910;6.792;2023-04-08T09:57:09;99452.44;;;14.06;77.51
26807;BME280;14380;49.910;6.792;2023-04-08T09:59:44;99446.88;;;14.84;78.62
26807;BME280;14380;49.910;6.792;2023-04-08T10:02:18;99436.41;;;14.67;78.75
26807;BME280;14380;49.910;6.792;2023-04-08T10:04:51;99442.88;;;15.06;78.59
26807;BME280;14380;49.910;6.792;2023-04-08T10:07:20;99434.91;;;14.63;77.91
26807;BME280;14380;49.910;6.792;2023-04-08T10:09:49;99438.75;;;14.42;77.47
26807;BME280;14380;49.910;6.792;2023-04-08T10:12:16;99445.47;;;13.73;79.63
26807;BME280;14380;49.910;6.792;2023-04-08T10:15:22;99452.06;;;13.33;81.25
26807;BME280;14380;49.910;6.792;2023-04-08T10:17:49;99440.81;;;14.23;81.34
26807;BME280;14380;49.910;6.792;2023-04-08T10:20:43;99438.72;;;14.28;78.76
26807;BME280;14380;49.910;6.792;2023-04-08T10:23:11;99438.06;;;14.84;76.37
26807;BME280;14380;49.910;6.792;2023-04-08T10:25:39;99438.63;;;14.75;75.65
26807;BME280;14380;49.910;6.792;2023-04-08T10:28:25;99431.06;;;15.25;76.94
26807;BME280;14380;49.910;6.792;2023-04-08T10:30:54;99440.75;;;14.53;74.84
26807;BME280;14380;49.910;6.792;2023-04-08T10:33:22;99432.94;;;14.95;77.45
26807;BME280;14380;49.910;6.792;2023-04-08T10:35:53;99434.16;;;14.90;76.08
26807;BME280;14380;49.910;6.792;2023-04-08T10:38:20;99429.50;;;14.79;77.21
26807;BME280;14380;49.910;6.792;2023-04-08T10:40:48;99433.41;;;14.73;76.00
26807;BME280;14380;49.910;6.792;2023-04-08T10:43:17;99427.50;;;15.11;72.69
26807;BME280;14380;49.910;6.792;2023-04-08T10:45:44;99425.59;;;14.55;71.52
26807;BME280;14380;49.910;6.792;2023-04-08T10:48:18;99422.56;;;14.91;71.39
26807;BME280;14380;49.910;6.792;2023-04-08T10:50:52;99420.22;;;15.00;73.51
26807;BME280;14380;49.910;6.792;2023-04-08T10:53:27;99421.16;;;14.99;71.01
26807;BME280;14380;49.910;6.792;2023-04-08T10:55:54;99412.16;;;14.73;71.49
26807;BME280;14380;49.910;6.792;2023-04-08T10:58:29;99418.81;;;13.90;71.61
26807;BME280;14380;49.910;6.792;2023-04-08T11:01:02;99410.34;;;14.74;74.39
26807;BME280;14380;49.910;6.792;2023-04-08T11:03:31;99415.09;;;15.25;75.53
26807;BME280;14380;49.910;6.792;2023-04-08T11:05:58;99407.88;;;14.85;75.09
26807;BME280;14380;49.910;6.792;2023-04-08T11:08:26;99411.53;;;15.11;76.03
26807;BME280;14380;49.910;6.792;2023-04-08T11:10:53;99400.78;;;15.55;71.25
26807;BME280;14380;49.910;6.792;2023-04-08T11:13:21;99400.81;;;15.95;74.58
26807;BME280;14380;49.910;6.792;2023-04-08T11:15:48;99406.00;;;15.56;72.50
26807;BME280;14380;49.910;6.792;2023-04-08T11:18:15;99401.78;;;15.67;71.42
26807;BME280;14380;49.910;6.792;2023-04-08T11:20:46;99398.25;;;15.94;70.75
26807;BME280;14380;49.910;6.792;2023-04-08T11:23:16;99392.56;;;15.85;70.30
26807;BME280;14380;49.910;6.792;2023-04-08T11:25:44;99394.19;;;15.60;72.63
26807;BME280;14380;49.910;6.792;2023-04-08T11:28:11;99395.22;;;15.03;69.82
26807;BME280;14380;49.910;6.792;2023-04-08T11:30:38;99398.44;;;14.79;72.95
26807;BME280;14380;49.910;6.792;2023-04-08T11:33:06;99398.81;;;14.58;74.34
26807;BME280;14380;49.910;6.792;2023-04-08T11:35:33;99405.25;;;14.25;73.65
26807;BME280;14380;49.910;6.792;2023-04-08T11:38:03;99400.88;;;14.24;78.12
26807;BME280;14380;49.910;6.792;2023-04-08T11:40:30;99405.63;;;14.19;76.11
26807;BME280;14380;49.910;6.792;2023-04-08T11:42:57;99411.88;;;13.88;78.67
26807;BME280;14380;49.910;6.792;2023-04-08T11:45:24;99405.84;;;14.00;77.72
26807;BME280;14380;49.910;6.792;2023-04-08T11:47:52;99413.69;;;13.87;76.81
26807;BME280;14380;49.910;6.792;2023-04-08T11:50:22;99413.34;;;14.08;77.83
26807;BME280;14380;49.910;6.792;2023-04-08T11:52:50;99411.13;;;13.86;78.89
26807;BME280;14380;49.910;6.792;2023-04-08T11:55:23;99423.41;;;14.03;79.26
26807;BME280;14380;49.910;6.792;2023-04-08T11:57:50;99436.50;;;13.59;81.66
26807;BME280;14380;49.910;6.792;2023-04-08T12:00:18;99428.81;;;13.38;82.24
26807;BME280;14380;49.910;6.792;2023-04-08T12:02:44;99434.22;;;12.87;86.00
26807;BME280;14380;49.910;6.792;2023-04-08T12:05:12;99437.88;;;13.18;85.27
26807;BME280;14380;49.910;6.792;2023-04-08T12:07:38;99433.50;;;13.17;85.77
26807;BME280;14380;49.910;6.792;2023-04-08T12:10:07;99430.50;;;13.23;85.32
26807;BME280;14380;49.910;6.792;2023-04-08T12:12:35;99435.03;;;13.21;85.12
26807;BME280;14380;49.910;6.792;2023-04-08T12:15:02;99426.94;;;13.24;85.03
26807;BME280;14380;49.910;6.792;2023-04-08T12:17:29;99439.22;;;13.26;84.22
26807;BME280;14380;49.910;6.792;2023-04-08T12:19:56;99430.84;;;13.17;84.43
26807;BME280;14380;49.910;6.792;2023-04-08T12:22:23;99427.94;;;13.06;84.06
26807;BME280;14380;49.910;6.792;2023-04-08T12:24:49;99438.59;;;12.88;85.38
26807;BME280;14380;49.910;6.792;2023-04-08T12:27:16;99435.88;;;13.22;85.17
26807;BME280;14380;49.910;6.792;2023-04-08T12:29:44;99431.69;;;13.34;85.48
26807;BME280;14380;49.910;6.792;2023-04-08T12:32:11;99430.25;;;13.12;83.97
26807;BME280;14380;49.910;6.792;2023-04-08T12:34:39;99432.38;;;13.37;82.53
26807;BME280;14380;49.910;6.792;2023-04-08T12:37:06;99430.16;;;13.14;84.04
26807;BME280;14380;49.910;6.792;2023-04-08T12:39:32;99427.94;;;13.22;82.69
26807;BME280;14380;49.910;6.792;2023-04-08T12:41:59;99433.84;;;13.11;84.24
26807;BME280;14380;49.910;6.792;2023-04-08T12:44:26;99431.41;;;13.06;81.91
26807;BME280;14380;49.910;6.792;2023-04-08T12:46:54;99432.50;;;12.86;82.95
26807;BME280;14380;49.910;6.792;2023-04-08T12:49:22;99430.91;;;13.16;81.50
26807;BME280;14380;49.910;6.792;2023-04-08T12:51:49;99427.59;;;13.28;82.74
26807;BME280;14380;49.910;6.792;2023-04-08T12:54:16;99419.19;;;13.36;81.94
26807;BME280;14380;49.910;6.792;2023-04-08T12:56:43;99425.47;;;13.67;82.32
26807;BME280;14380;49.910;6.792;2023-04-08T12:59:09;99415.97;;;13.63;80.81
26807;BME280;14380;49.910;6.792;2023-04-08T13:01:36;99418.81;;;13.60;81.07
26807;BME280;14380;49.910;6.792;2023-04-08T13:04:05;99416.53;;;13.84;80.11
26807;BME280;14380;49.910;6.792;2023-04-08T13:06:31;99413.47;;;13.76;78.09